sensor_id;sensor_type;location;lat;lon;timestamp;P1;durP1;ratioP1;P2;durP2;ratioP2
4051;SDS011;2040;50.924;11.604;2022-12-05T00:03:50;43.13;;;13.17;;
4051;SDS011;2040;50.924;11.604;2022-12-05T00:06:16;84.97;;;15.70;;
4051;SDS011;2040;50.924;11.604;2022-12-05T00:08:43;259.20;;;24.20;;
4051;SDS011;2040;50.924;11.604;2022-12-05T00:11:29;124.43;;;18.77;;
4051;SDS011;2040;50.924;11.604;2022-12-05T00:13:57;75.60;;;16.17;;
4051;SDS011;2040;50.924;11.604;2022-12-05T00:16:24;47.67;;;13.70;;
4051;SDS011;2040;50.924;11.604;2022-12-05T00:18:52;103.23;;;14.57;;
4051;SDS011;2040;50.924;11.604;2022-12-05T00:21:21;94.20;;;16.57;;
4051;SDS011;2040;50.924;11.604;2022-12-05T00:23:48;74.13;;;16.90;;
4051;SDS011;2040;50.924;11.604;2022-12-05T00:26:14;44.90;;;13.27;;
4051;SDS011;2040;50.924;11.604;2022-12-05T00:28:40;105.30;;;16.43;;
4051;SDS011;2040;50.924;11.604;2022-12-05T00:31:07;64.37;;;14.80;;
4051;SDS011;2040;50.924;11.604;2022-12-05T00:33:35;59.57;;;16.63;;
4051;SDS011;2040;50.924;11.604;2022-12-05T00:36:06;56.73;;;14.10;;
4051;SDS011;2040;50.924;11.604;2022-12-05T00:38:34;203.33;;;21.87;;
4051;SDS011;2040;50.924;11.604;2022-12-05T00:41:03;62.67;;;13.70;;
4051;SDS011;2040;50.924;11.604;2022-12-05T00:43:33;40.57;;;12.80;;
4051;SDS011;2040;50.924;11.604;2022-12-05T00:46:00;119.83;;;17.13;;
4051;SDS011;2040;50.924;11.604;2022-12-05T00:48:26;154.90;;;21.60;;
4051;SDS011;2040;50.924;11.604;2022-12-05T00:50:58;111.73;;;15.33;;
4051;SDS011;2040;50.924;11.604;2022-12-05T00:53:29;77.30;;;14.37;;
4051;SDS011;2040;50.924;11.604;2022-12-05T00:55:54;127.97;;;17.40;;
4051;SDS011;2040;50.924;11.604;2022-12-05T00:58:20;67.83;;;14.23;;
4051;SDS011;2040;50.924;11.604;2022-12-05T01:00:46;68.17;;;15.50;;
4051;SDS011;2040;50.924;11.604;2022-12-05T01:03:12;96.83;;;17.40;;
4051;SDS011;2040;50.924;11.604;2022-12-05T01:05:38;155.10;;;19.87;;
4051;SDS011;2040;50.924;11.604;2022-12-05T01:08:03;45.43;;;13.23;;
4051;SDS011;2040;50.924;11.604;2022-12-05T01:10:29;121.80;;;18.63;;
4051;SDS011;2040;50.924;11.604;2022-12-05T01:12:54;73.63;;;15.63;;
4051;SDS011;2040;50.924;11.604;2022-12-05T01:15:20;79.03;;;13.90;;
4051;SDS011;2040;50.924;11.604;2022-12-05T01:17:46;96.07;;;14.47;;
4051;SDS011;2040;50.924;11.604;2022-12-05T01:20:11;63.43;;;12.10;;
4051;SDS011;2040;50.924;11.604;2022-12-05T01:22:37;68.80;;;16.93;;
4051;SDS011;2040;50.924;11.604;2022-12-05T01:25:03;85.43;;;15.80;;
4051;SDS011;2040;50.924;11.604;2022-12-05T01:27:29;109.50;;;16.87;;
4051;SDS011;2040;50.924;11.604;2022-12-05T01:29:54;52.10;;;12.87;;
4051;SDS011;2040;50.924;11.604;2022-12-05T01:32:21;104.83;;;14.63;;
4051;SDS011;2040;50.924;11.604;2022-12-05T01:34:46;79.53;;;12.70;;
4051;SDS011;2040;50.924;11.604;2022-12-05T01:37:12;76.63;;;14.47;;
4051;SDS011;2040;50.924;11.604;2022-12-05T01:39:38;50.37;;;13.10;;
4051;SDS011;2040;50.924;11.604;2022-12-05T01:42:03;189.87;;;20.57;;
4051;SDS011;2040;50.924;11.604;2022-12-05T01:46:55;78.50;;;15.30;;
4051;SDS011;2040;50.924;11.604;2022-12-05T01:49:26;45.80;;;12.77;;
4051;SDS011;2040;50.924;11.604;2022-12-05T01:51:58;41.03;;;11.73;;
4051;SDS011;2040;50.924;11.604;2022-12-05T01:54:29;29.97;;;11.30;;
4051;SDS011;2040;50.924;11.604;2022-12-05T01:56:57;47.20;;;12.70;;
4051;SDS011;2040;50.924;11.604;2022-12-05T01:59:26;57.33;;;14.37;;
4051;SDS011;2040;50.924;11.604;2022-12-05T02:01:54;44.93;;;11.63;;
4051;SDS011;2040;50.924;11.604;2022-12-05T02:04:19;36.13;;;11.60;;
4051;SDS011;2040;50.924;11.604;2022-12-05T02:06:45;36.00;;;11.20;;
4051;SDS011;2040;50.924;11.604;2022-12-05T02:09:11;42.27;;;12.27;;
4051;SDS011;2040;50.924;11.604;2022-12-05T02:11:40;32.10;;;12.60;;
4051;SDS011;2040;50.924;11.604;2022-12-05T02:14:30;27.27;;;11.47;;
4051;SDS011;2040;50.924;11.604;2022-12-05T02:17:28;26.77;;;11.20;;
4051;SDS011;2040;50.924;11.604;2022-12-05T02:20:03;27.83;;;11.53;;
4051;SDS011;2040;50.924;11.604;2022-12-05T02:30:39;25.00;;;10.40;;
4051;SDS011;2040;50.924;11.604;2022-12-05T02:33:10;46.77;;;12.87;;
4051;SDS011;2040;50.924;11.604;2022-12-05T02:38:17;40.87;;;11.20;;
4051;SDS011;2040;50.924;11.604;2022-12-05T02:43:54;30.40;;;10.77;;
4051;SDS011;2040;50.924;11.604;2022-12-05T02:46:28;28.53;;;11.60;;
4051;SDS011;2040;50.924;11.604;2022-12-05T02:48:56;25.80;;;12.00;;
4051;SDS011;2040;50.924;11.604;2022-12-05T02:51:27;47.47;;;13.03;;
4051;SDS011;2040;50.924;11.604;2022-12-05T02:53:58;57.63;;;12.70;;
4051;SDS011;2040;50.924;11.604;2022-12-05T02:56:26;31.53;;;10.50;;
4051;SDS011;2040;50.924;11.604;2022-12-05T02:58:54;37.67;;;12.10;;
4051;SDS011;2040;50.924;11.604;2022-12-05T03:01:20;37.60;;;10.80;;
4051;SDS011;2040;50.924;11.604;2022-12-05T03:03:48;29.27;;;10.70;;
4051;SDS011;2040;50.924;11.604;2022-12-05T03:06:16;84.50;;;13.70;;
4051;SDS011;2040;50.924;11.604;2022-12-05T03:08:50;79.90;;;13.53;;
4051;SDS011;2040;50.924;11.604;2022-12-05T03:11:19;31.13;;;12.67;;
4051;SDS011;2040;50.924;11.604;2022-12-05T03:13:48;38.07;;;12.60;;
4051;SDS011;2040;50.924;11.604;2022-12-05T03:16:17;52.00;;;11.43;;
4051;SDS011;2040;50.924;11.604;2022-12-05T03:18:50;44.50;;;11.53;;
4051;SDS011;2040;50.924;11.604;2022-12-05T03:22:07;24.67;;;11.60;;
4051;SDS011;2040;50.924;11.604;2022-12-05T03:24:30;67.87;;;15.27;;
4051;SDS011;2040;50.924;11.604;2022-12-05T03:29:39;39.03;;;12.10;;
4051;SDS011;2040;50.924;11.604;2022-12-05T03:43:06;36.43;;;10.90;;
4051;SDS011;2040;50.924;11.604;2022-12-05T03:45:54;29.73;;;10.10;;
4051;SDS011;2040;50.924;11.604;2022-12-05T03:48:29;23.70;;;10.57;;
4051;SDS011;2040;50.924;11.604;2022-12-05T03:51:07;25.27;;;10.07;;
4051;SDS011;2040;50.924;11.604;2022-12-05T03:53:52;19.47;;;10.43;;
4051;SDS011;2040;50.924;11.604;2022-12-05T03:56:24;22.60;;;9.13;;
4051;SDS011;2040;50.924;11.604;2022-12-05T04:01:48;24.93;;;9.90;;
4051;SDS011;2040;50.924;11.604;2022-12-05T04:04:18;31.43;;;9.50;;
4051;SDS011;2040;50.924;11.604;2022-12-05T04:06:49;29.63;;;10.93;;
4051;SDS011;2040;50.924;11.604;2022-12-05T04:09:30;31.50;;;11.23;;
4051;SDS011;2040;50.924;11.604;2022-12-05T04:12:13;28.83;;;10.13;;
4051;SDS011;2040;50.924;11.604;2022-12-05T04:14:44;29.73;;;10.73;;
4051;SDS011;2040;50.924;11.604;2022-12-05T04:19:51;23.97;;;9.93;;
4051;SDS011;2040;50.924;11.604;2022-12-05T04:22:39;21.43;;;9.60;;
4051;SDS011;2040;50.924;11.604;2022-12-05T04:25:07;23.77;;;9.23;;
4051;SDS011;2040;50.924;11.604;2022-12-05T04:30:34;22.77;;;9.10;;
4051;SDS011;2040;50.924;11.604;2022-12-05T04:33:31;21.87;;;9.40;;
4051;SDS011;2040;50.924;11.604;2022-12-05T04:36:35;19.57;;;9.13;;
4051;SDS011;2040;50.924;11.604;2022-12-05T04:42:04;26.00;;;9.07;;
4051;SDS011;2040;50.924;11.604;2022-12-05T04:44:46;17.53;;;8.53;;
4051;SDS011;2040;50.924;11.604;2022-12-05T04:47:17;17.73;;;8.40;;
4051;SDS011;2040;50.924;11.604;2022-12-05T04:49:45;23.03;;;8.33;;
4051;SDS011;2040;50.924;11.604;2022-12-05T04:52:12;16.17;;;8.67;;
4051;SDS011;2040;50.924;11.604;2022-12-05T04:54:45;13.83;;;7.83;;
4051;SDS011;2040;50.924;11.604;2022-12-05T05:00:28;16.80;;;9.10;;
4051;SDS011;2040;50.924;11.604;2022-12-05T05:03:06;18.30;;;7.60;;
4051;SDS011;2040;50.924;11.604;2022-12-05T05:05:37;21.63;;;8.60;;
4051;SDS011;2040;50.924;11.604;2022-12-05T05:08:04;29.23;;;9.40;;
4051;SDS011;2040;50.924;11.604;2022-12-05T05:10:44;14.83;;;7.43;;
4051;SDS011;2040;50.924;11.604;2022-12-05T05:13:16;17.90;;;9.17;;
4051;SDS011;2040;50.924;11.604;2022-12-05T05:15:41;14.83;;;8.33;;
4051;SDS011;2040;50.924;11.604;2022-12-05T05:18:08;23.40;;;10.00;;
4051;SDS011;2040;50.924;11.604;2022-12-05T05:20:34;22.90;;;9.10;;
4051;SDS011;2040;50.924;11.604;2022-12-05T05:22:59;19.17;;;8.77;;
4051;SDS011;2040;50.924;11.604;2022-12-05T05:25:25;22.80;;;10.43;;
4051;SDS011;2040;50.924;11.604;2022-12-05T05:27:51;19.53;;;9.87;;
4051;SDS011;2040;50.924;11.604;2022-12-05T05:30:19;20.83;;;8.83;;
4051;SDS011;2040;50.924;11.604;2022-12-05T05:32:46;23.97;;;10.73;;
4051;SDS011;2040;50.924;11.604;2022-12-05T05:35:13;20.90;;;8.30;;
4051;SDS011;2040;50.924;11.604;2022-12-05T05:37:39;33.00;;;8.07;;
4051;SDS011;2040;50.924;11.604;2022-12-05T05:40:06;16.30;;;8.23;;
4051;SDS011;2040;50.924;11.604;2022-12-05T05:42:33;20.23;;;7.17;;
4051;SDS011;2040;50.924;11.604;2022-12-05T05:44:59;18.43;;;6.50;;
4051;SDS011;2040;50.924;11.604;2022-12-05T05:47:24;20.20;;;9.30;;
4051;SDS011;2040;50.924;11.604;2022-12-05T05:49:50;22.07;;;8.13;;
4051;SDS011;2040;50.924;11.604;2022-12-05T05:52:15;17.33;;;8.27;;
4051;SDS011;2040;50.924;11.604;2022-12-05T05:54:41;16.73;;;7.83;;
4051;SDS011;2040;50.924;11.604;2022-12-05T05:57:07;16.40;;;8.20;;
4051;SDS011;2040;50.924;11.604;2022-12-05T05:59:32;18.23;;;8.07;;
4051;SDS011;2040;50.924;11.604;2022-12-05T06:01:58;14.10;;;8.07;;
4051;SDS011;2040;50.924;11.604;2022-12-05T06:04:23;18.57;;;8.33;;
4051;SDS011;2040;50.924;11.604;2022-12-05T06:06:49;20.33;;;8.20;;
4051;SDS011;2040;50.924;11.604;2022-12-05T06:09:15;23.17;;;7.87;;
4051;SDS011;2040;50.924;11.604;2022-12-05T06:11:40;16.33;;;8.30;;
4051;SDS011;2040;50.924;11.604;2022-12-05T06:14:06;17.47;;;8.50;;
4051;SDS011;2040;50.924;11.604;2022-12-05T06:16:32;15.77;;;8.17;;
4051;SDS011;2040;50.924;11.604;2022-12-05T06:18:58;29.43;;;9.17;;
4051;SDS011;2040;50.924;11.604;2022-12-05T06:21:24;18.67;;;6.77;;
4051;SDS011;2040;50.924;11.604;2022-12-05T06:23:49;19.10;;;8.13;;
4051;SDS011;2040;50.924;11.604;2022-12-05T06:26:16;18.17;;;9.33;;
4051;SDS011;2040;50.924;11.604;2022-12-05T06:28:42;13.53;;;7.20;;
4051;SDS011;2040;50.924;11.604;2022-12-05T06:31:09;12.87;;;7.33;;
4051;SDS011;2040;50.924;11.604;2022-12-05T06:33:36;18.33;;;7.40;;
4051;SDS011;2040;50.924;11.604;2022-12-05T06:36:06;16.43;;;8.37;;
4051;SDS011;2040;50.924;11.604;2022-12-05T06:38:34;17.57;;;8.67;;
4051;SDS011;2040;50.924;11.604;2022-12-05T06:40:59;15.17;;;7.80;;
4051;SDS011;2040;50.924;11.604;2022-12-05T06:43:29;17.83;;;8.70;;
4051;SDS011;2040;50.924;11.604;2022-12-05T06:45:55;17.13;;;7.47;;
4051;SDS011;2040;50.924;11.604;2022-12-05T06:48:21;20.70;;;8.23;;
4051;SDS011;2040;50.924;11.604;2022-12-05T06:50:50;16.70;;;8.37;;
4051;SDS011;2040;50.924;11.604;2022-12-05T06:53:17;15.10;;;7.27;;
4051;SDS011;2040;50.924;11.604;2022-12-05T06:55:43;14.97;;;7.50;;
4051;SDS011;2040;50.924;11.604;2022-12-05T06:58:18;14.60;;;7.40;;
4051;SDS011;2040;50.924;11.604;2022-12-05T07:00:44;18.30;;;7.53;;
4051;SDS011;2040;50.924;11.604;2022-12-05T07:03:28;21.87;;;9.27;;
4051;SDS011;2040;50.924;11.604;2022-12-05T07:05:53;18.57;;;7.00;;
4051;SDS011;2040;50.924;11.604;2022-12-05T07:08:19;18.00;;;8.27;;
4051;SDS011;2040;50.924;11.604;2022-12-05T07:10:49;20.30;;;6.43;;
4051;SDS011;2040;50.924;11.604;2022-12-05T07:13:16;15.47;;;7.53;;
4051;SDS011;2040;50.924;11.604;2022-12-05T07:15:41;18.80;;;7.60;;
4051;SDS011;2040;50.924;11.604;2022-12-05T07:18:07;19.53;;;8.17;;
4051;SDS011;2040;50.924;11.604;2022-12-05T07:20:33;12.40;;;6.87;;
4051;SDS011;2040;50.924;11.604;2022-12-05T07:22:58;16.73;;;8.40;;
4051;SDS011;2040;50.924;11.604;2022-12-05T07:25:24;19.10;;;7.80;;
4051;SDS011;2040;50.924;11.604;2022-12-05T07:27:50;18.70;;;8.37;;
4051;SDS011;2040;50.924;11.604;2022-12-05T07:30:15;18.00;;;8.30;;
4051;SDS011;2040;50.924;11.604;2022-12-05T07:32:41;13.53;;;7.40;;
4051;SDS011;2040;50.924;11.604;2022-12-05T07:35:07;15.20;;;8.20;;
4051;SDS011;2040;50.924;11.604;2022-12-05T07:37:32;17.03;;;8.53;;
4051;SDS011;2040;50.924;11.604;2022-12-05T07:39:58;19.37;;;9.60;;
4051;SDS011;2040;50.924;11.604;2022-12-05T07:42:23;17.90;;;8.97;;
4051;SDS011;2040;50.924;11.604;2022-12-05T07:44:49;17.30;;;8.87;;
4051;SDS011;2040;50.924;11.604;2022-12-05T07:47:15;21.97;;;9.50;;
4051;SDS011;2040;50.924;11.604;2022-12-05T07:49:40;29.70;;;9.00;;
4051;SDS011;2040;50.924;11.604;2022-12-05T07:52:06;22.00;;;7.83;;
4051;SDS011;2040;50.924;11.604;2022-12-05T07:54:32;29.27;;;9.67;;
4051;SDS011;2040;50.924;11.604;2022-12-05T07:56:57;20.40;;;9.60;;
4051;SDS011;2040;50.924;11.604;2022-12-05T07:59:23;18.00;;;8.10;;
4051;SDS011;2040;50.924;11.604;2022-12-05T08:01:49;46.37;;;12.30;;
4051;SDS011;2040;50.924;11.604;2022-12-05T08:04:14;24.37;;;10.60;;
4051;SDS011;2040;50.924;11.604;2022-12-05T08:06:40;23.80;;;10.90;;
4051;SDS011;2040;50.924;11.604;2022-12-05T08:09:05;22.00;;;9.53;;
4051;SDS011;2040;50.924;11.604;2022-12-05T08:11:31;18.07;;;8.60;;
4051;SDS011;2040;50.924;11.604;2022-12-05T08:14:00;20.10;;;10.07;;
4051;SDS011;2040;50.924;11.604;2022-12-05T08:16:29;21.60;;;9.10;;
4051;SDS011;2040;50.924;11.604;2022-12-05T08:18:56;26.87;;;11.37;;
4051;SDS011;2040;50.924;11.604;2022-12-05T08:21:23;26.73;;;10.73;;
4051;SDS011;2040;50.924;11.604;2022-12-05T08:23:49;43.60;;;12.03;;
4051;SDS011;2040;50.924;11.604;2022-12-05T08:26:16;43.03;;;12.30;;
4051;SDS011;2040;50.924;11.604;2022-12-05T08:28:44;82.87;;;14.13;;
4051;SDS011;2040;50.924;11.604;2022-12-05T08:31:12;30.73;;;12.73;;
4051;SDS011;2040;50.924;11.604;2022-12-05T08:33:41;38.93;;;10.90;;
4051;SDS011;2040;50.924;11.604;2022-12-05T08:36:08;27.83;;;10.80;;
4051;SDS011;2040;50.924;11.604;2022-12-05T08:38:36;38.43;;;10.87;;
4051;SDS011;2040;50.924;11.604;2022-12-05T08:41:03;63.00;;;10.73;;
4051;SDS011;2040;50.924;11.604;2022-12-05T08:43:31;23.77;;;10.83;;
4051;SDS011;2040;50.924;11.604;2022-12-05T08:45:57;38.97;;;10.57;;
4051;SDS011;2040;50.924;11.604;2022-12-05T08:48:23;29.03;;;11.60;;
4051;SDS011;2040;50.924;11.604;2022-12-05T08:50:49;38.13;;;10.57;;
4051;SDS011;2040;50.924;11.604;2022-12-05T08:53:15;23.33;;;10.43;;
4051;SDS011;2040;50.924;11.604;2022-12-05T08:55:41;75.10;;;12.97;;
4051;SDS011;2040;50.924;11.604;2022-12-05T08:58:07;27.57;;;9.63;;
4051;SDS011;2040;50.924;11.604;2022-12-05T09:00:33;35.50;;;11.10;;
4051;SDS011;2040;50.924;11.604;2022-12-05T09:02:59;26.57;;;11.03;;
4051;SDS011;2040;50.924;11.604;2022-12-05T09:05:25;21.33;;;10.30;;
4051;SDS011;2040;50.924;11.604;2022-12-05T09:07:50;26.10;;;10.77;;
4051;SDS011;2040;50.924;11.604;2022-12-05T09:10:16;38.40;;;11.30;;
4051;SDS011;2040;50.924;11.604;2022-12-05T09:12:42;32.80;;;12.77;;
4051;SDS011;2040;50.924;11.604;2022-12-05T09:15:08;42.27;;;13.17;;
4051;SDS011;2040;50.924;11.604;2022-12-05T09:17:35;18.30;;;9.90;;
4051;SDS011;2040;50.924;11.604;2022-12-05T09:20:02;26.43;;;11.13;;
4051;SDS011;2040;50.924;11.604;2022-12-05T09:22:28;26.47;;;11.40;;
4051;SDS011;2040;50.924;11.604;2022-12-05T09:24:54;26.90;;;11.87;;
4051;SDS011;2040;50.924;11.604;2022-12-05T09:27:19;52.37;;;12.23;;
4051;SDS011;2040;50.924;11.604;2022-12-05T09:29:45;54.23;;;13.27;;
4051;SDS011;2040;50.924;11.604;2022-12-05T09:32:11;134.23;;;17.77;;
4051;SDS011;2040;50.924;11.604;2022-12-05T09:34:37;20.70;;;10.90;;
4051;SDS011;2040;50.924;11.604;2022-12-05T09:37:03;40.53;;;11.60;;
4051;SDS011;2040;50.924;11.604;2022-12-05T09:39:30;25.17;;;10.00;;
4051;SDS011;2040;50.924;11.604;2022-12-05T09:47:56;26.60;;;10.93;;
4051;SDS011;2040;50.924;11.604;2022-12-05T09:53:10;18.97;;;9.80;;
4051;SDS011;2040;50.924;11.604;2022-12-05T09:55:47;17.33;;;9.80;;
4051;SDS011;2040;50.924;11.604;2022-12-05T09:58:41;22.30;;;9.30;;
4051;SDS011;2040;50.924;11.604;2022-12-05T10:06:49;21.63;;;10.23;;
4051;SDS011;2040;50.924;11.604;2022-12-05T10:09:24;16.77;;;8.97;;
4051;SDS011;2040;50.924;11.604;2022-12-05T10:15:00;18.07;;;8.73;;
4051;SDS011;2040;50.924;11.604;2022-12-05T10:17:39;17.20;;;7.97;;
4051;SDS011;2040;50.924;11.604;2022-12-05T10:20:23;15.90;;;8.13;;
4051;SDS011;2040;50.924;11.604;2022-12-05T10:22:57;18.40;;;9.07;;
4051;SDS011;2040;50.924;11.604;2022-12-05T10:25:29;18.73;;;7.97;;
4051;SDS011;2040;50.924;11.604;2022-12-05T10:27:59;16.97;;;8.10;;
4051;SDS011;2040;50.924;11.604;2022-12-05T10:30:28;18.90;;;8.50;;
4051;SDS011;2040;50.924;11.604;2022-12-05T10:32:57;20.30;;;8.77;;
4051;SDS011;2040;50.924;11.604;2022-12-05T10:35:25;13.77;;;8.87;;
4051;SDS011;2040;50.924;11.604;2022-12-05T10:37:58;24.07;;;9.00;;
4051;SDS011;2040;50.924;11.604;2022-12-05T10:40:33;21.53;;;8.90;;
4051;SDS011;2040;50.924;11.604;2022-12-05T10:43:05;16.70;;;7.30;;
4051;SDS011;2040;50.924;11.604;2022-12-05T10:45:40;14.53;;;8.10;;
4051;SDS011;2040;50.924;11.604;2022-12-05T10:48:08;13.03;;;6.73;;
4051;SDS011;2040;50.924;11.604;2022-12-05T10:50:36;22.70;;;10.40;;
4051;SDS011;2040;50.924;11.604;2022-12-05T10:53:04;16.13;;;8.13;;
4051;SDS011;2040;50.924;11.604;2022-12-05T10:58:21;14.90;;;8.20;;
4051;SDS011;2040;50.924;11.604;2022-12-05T11:00:51;14.03;;;9.00;;
4051;SDS011;2040;50.924;11.604;2022-12-05T11:03:44;15.57;;;8.77;;
4051;SDS011;2040;50.924;11.604;2022-12-05T11:06:16;17.60;;;9.10;;
4051;SDS011;2040;50.924;11.604;2022-12-05T11:08:51;20.73;;;9.23;;
4051;SDS011;2040;50.924;11.604;2022-12-05T11:11:24;15.03;;;8.87;;
4051;SDS011;2040;50.924;11.604;2022-12-05T11:13:59;25.93;;;9.00;;
4051;SDS011;2040;50.924;11.604;2022-12-05T11:16:31;17.33;;;8.77;;
4051;SDS011;2040;50.924;11.604;2022-12-05T11:21:52;14.10;;;7.00;;
4051;SDS011;2040;50.924;11.604;2022-12-05T11:24:23;11.10;;;6.70;;
4051;SDS011;2040;50.924;11.604;2022-12-05T11:26:52;14.47;;;7.70;;
4051;SDS011;2040;50.924;11.604;2022-12-05T11:29:26;29.90;;;10.03;;
4051;SDS011;2040;50.924;11.604;2022-12-05T11:31:54;24.10;;;10.50;;
4051;SDS011;2040;50.924;11.604;2022-12-05T11:34:21;24.37;;;11.37;;
4051;SDS011;2040;50.924;11.604;2022-12-05T11:37:03;25.47;;;10.40;;
4051;SDS011;2040;50.924;11.604;2022-12-05T11:39:34;27.07;;;12.37;;
4051;SDS011;2040;50.924;11.604;2022-12-05T11:42:15;21.63;;;10.00;;
4051;SDS011;2040;50.924;11.604;2022-12-05T11:47:43;18.73;;;8.70;;
4051;SDS011;2040;50.924;11.604;2022-12-05T11:50:17;21.80;;;11.30;;
4051;SDS011;2040;50.924;11.604;2022-12-05T11:53:12;21.70;;;9.70;;
4051;SDS011;2040;50.924;11.604;2022-12-05T11:55:53;17.97;;;10.20;;
4051;SDS011;2040;50.924;11.604;2022-12-05T12:12:53;15.40;;;7.93;;
4051;SDS011;2040;50.924;11.604;2022-12-05T12:15:47;18.83;;;8.40;;
4051;SDS011;2040;50.924;11.604;2022-12-05T12:18:45;24.93;;;13.20;;
4051;SDS011;2040;50.924;11.604;2022-12-05T12:24:10;15.63;;;8.97;;
4051;SDS011;2040;50.924;11.604;2022-12-05T12:31:58;21.77;;;8.17;;
4051;SDS011;2040;50.924;11.604;2022-12-05T12:45:30;10.60;;;6.10;;
4051;SDS011;2040;50.924;11.604;2022-12-05T12:50:41;11.20;;;7.20;;
4051;SDS011;2040;50.924;11.604;2022-12-05T13:01:44;10.67;;;5.87;;
4051;SDS011;2040;50.924;11.604;2022-12-05T13:07:31;14.53;;;6.40;;
4051;SDS011;2040;50.924;11.604;2022-12-05T13:10:05;9.63;;;5.60;;
4051;SDS011;2040;50.924;11.604;2022-12-05T13:12:41;16.00;;;8.40;;
4051;SDS011;2040;50.924;11.604;2022-12-05T13:15:19;16.17;;;6.80;;
4051;SDS011;2040;50.924;11.604;2022-12-05T13:17:51;16.57;;;7.37;;
4051;SDS011;2040;50.924;11.604;2022-12-05T13:20:19;17.83;;;8.70;;
4051;SDS011;2040;50.924;11.604;2022-12-05T13:22:48;21.43;;;8.43;;
4051;SDS011;2040;50.924;11.604;2022-12-05T13:25:16;18.93;;;9.07;;
4051;SDS011;2040;50.924;11.604;2022-12-05T13:27:56;19.40;;;8.33;;
4051;SDS011;2040;50.924;11.604;2022-12-05T13:30:25;21.57;;;9.50;;
4051;SDS011;2040;50.924;11.604;2022-12-05T13:33:00;14.27;;;8.67;;
4051;SDS011;2040;50.924;11.604;2022-12-05T13:35:30;15.77;;;7.60;;
4051;SDS011;2040;50.924;11.604;2022-12-05T13:38:29;15.40;;;9.43;;
4051;SDS011;2040;50.924;11.604;2022-12-05T13:41:16;12.70;;;7.47;;
4051;SDS011;2040;50.924;11.604;2022-12-05T13:44:01;14.47;;;7.83;;
4051;SDS011;2040;50.924;11.604;2022-12-05T13:46:36;14.73;;;7.60;;
4051;SDS011;2040;50.924;11.604;2022-12-05T13:49:05;15.13;;;7.80;;
4051;SDS011;2040;50.924;11.604;2022-12-05T13:52:02;19.53;;;10.20;;
4051;SDS011;2040;50.924;11.604;2022-12-05T13:54:34;19.30;;;8.67;;
4051;SDS011;2040;50.924;11.604;2022-12-05T13:57:08;22.60;;;10.90;;
4051;SDS011;2040;50.924;11.604;2022-12-05T14:07:44;19.43;;;10.67;;
4051;SDS011;2040;50.924;11.604;2022-12-05T14:10:15;22.30;;;10.93;;
4051;SDS011;2040;50.924;11.604;2022-12-05T14:12:51;22.70;;;9.87;;
4051;SDS011;2040;50.924;11.604;2022-12-05T14:15:25;23.07;;;10.57;;
4051;SDS011;2040;50.924;11.604;2022-12-05T14:18:11;18.27;;;9.97;;
4051;SDS011;2040;50.924;11.604;2022-12-05T14:21:00;23.87;;;10.10;;
4051;SDS011;2040;50.924;11.604;2022-12-05T14:24:00;23.87;;;10.10;;
4051;SDS011;2040;50.924;11.604;2022-12-05T14:30:09;54.07;;;10.90;;
4051;SDS011;2040;50.924;11.604;2022-12-05T14:32:21;22.00;;;10.00;;
4051;SDS011;2040;50.924;11.604;2022-12-05T14:35:11;42.33;;;12.37;;
4051;SDS011;2040;50.924;11.604;2022-12-05T14:37:56;134.07;;;14.47;;
4051;SDS011;2040;50.924;11.604;2022-12-05T14:40:29;48.37;;;12.80;;
4051;SDS011;2040;50.924;11.604;2022-12-05T14:43:05;231.00;;;21.77;;
4051;SDS011;2040;50.924;11.604;2022-12-05T14:50:48;45.30;;;11.27;;
4051;SDS011;2040;50.924;11.604;2022-12-05T14:55:45;71.63;;;12.73;;
4051;SDS011;2040;50.924;11.604;2022-12-05T14:58:40;25.63;;;9.50;;
4051;SDS011;2040;50.924;11.604;2022-12-05T15:03:59;68.67;;;11.40;;
4051;SDS011;2040;50.924;11.604;2022-12-05T15:07:37;76.80;;;19.80;;
4051;SDS011;2040;50.924;11.604;2022-12-05T15:17:52;166.30;;;20.33;;
4051;SDS011;2040;50.924;11.604;2022-12-05T15:23:44;116.63;;;25.70;;
4051;SDS011;2040;50.924;11.604;2022-12-05T15:26:21;56.53;;;16.50;;
4051;SDS011;2040;50.924;11.604;2022-12-05T15:31:28;75.40;;;19.80;;
4051;SDS011;2040;50.924;11.604;2022-12-05T15:33:57;50.53;;;18.00;;
4051;SDS011;2040;50.924;11.604;2022-12-05T15:36:29;38.17;;;14.90;;
4051;SDS011;2040;50.924;11.604;2022-12-05T15:39:02;24.50;;;12.67;;
4051;SDS011;2040;50.924;11.604;2022-12-05T15:41:29;24.70;;;12.10;;
4051;SDS011;2040;50.924;11.604;2022-12-05T15:43:55;38.07;;;11.53;;
4051;SDS011;2040;50.924;11.604;2022-12-05T15:46:22;29.70;;;12.00;;
4051;SDS011;2040;50.924;11.604;2022-12-05T15:48:55;32.43;;;12.23;;
4051;SDS011;2040;50.924;11.604;2022-12-05T15:51:40;31.53;;;12.70;;
4051;SDS011;2040;50.924;11.604;2022-12-05T15:54:12;31.00;;;11.83;;
4051;SDS011;2040;50.924;11.604;2022-12-05T15:56:43;38.00;;;14.13;;
4051;SDS011;2040;50.924;11.604;2022-12-05T16:01:47;56.60;;;20.37;;
4051;SDS011;2040;50.924;11.604;2022-12-05T16:04:25;41.83;;;14.70;;
4051;SDS011;2040;50.924;11.604;2022-12-05T16:06:59;31.70;;;15.17;;
4051;SDS011;2040;50.924;11.604;2022-12-05T16:09:31;41.30;;;15.40;;
4051;SDS011;2040;50.924;11.604;2022-12-05T16:12:01;52.90;;;16.47;;
4051;SDS011;2040;50.924;11.604;2022-12-05T16:14:36;68.50;;;19.33;;
4051;SDS011;2040;50.924;11.604;2022-12-05T16:17:04;38.27;;;13.37;;
4051;SDS011;2040;50.924;11.604;2022-12-05T16:19:31;149.83;;;20.97;;
4051;SDS011;2040;50.924;11.604;2022-12-05T16:22:01;46.70;;;19.77;;
4051;SDS011;2040;50.924;11.604;2022-12-05T16:24:30;79.97;;;20.23;;
4051;SDS011;2040;50.924;11.604;2022-12-05T16:29:37;30.17;;;15.10;;
4051;SDS011;2040;50.924;11.604;2022-12-05T16:32:03;51.20;;;15.07;;
4051;SDS011;2040;50.924;11.604;2022-12-05T16:34:38;37.00;;;14.17;;
4051;SDS011;2040;50.924;11.604;2022-12-05T16:37:04;31.33;;;14.93;;
4051;SDS011;2040;50.924;11.604;2022-12-05T16:39:32;38.30;;;14.93;;
4051;SDS011;2040;50.924;11.604;2022-12-05T16:41:58;30.30;;;13.93;;
4051;SDS011;2040;50.924;11.604;2022-12-05T16:46:52;30.57;;;13.97;;
4051;SDS011;2040;50.924;11.604;2022-12-05T16:52:10;128.80;;;20.20;;
4051;SDS011;2040;50.924;11.604;2022-12-05T16:54:38;58.07;;;13.13;;
4051;SDS011;2040;50.924;11.604;2022-12-05T16:57:05;55.07;;;14.17;;
4051;SDS011;2040;50.924;11.604;2022-12-05T16:59:34;27.03;;;12.50;;
4051;SDS011;2040;50.924;11.604;2022-12-05T17:02:02;31.63;;;12.83;;
4051;SDS011;2040;50.924;11.604;2022-12-05T17:04:28;36.23;;;11.20;;
4051;SDS011;2040;50.924;11.604;2022-12-05T17:06:55;24.37;;;13.37;;
4051;SDS011;2040;50.924;11.604;2022-12-05T17:09:21;19.53;;;10.60;;
4051;SDS011;2040;50.924;11.604;2022-12-05T17:11:48;23.30;;;11.13;;
4051;SDS011;2040;50.924;11.604;2022-12-05T17:14:16;24.67;;;10.50;;
4051;SDS011;2040;50.924;11.604;2022-12-05T17:16:43;23.57;;;12.10;;
4051;SDS011;2040;50.924;11.604;2022-12-05T17:19:12;22.23;;;10.83;;
4051;SDS011;2040;50.924;11.604;2022-12-05T17:21:38;17.70;;;9.77;;
4051;SDS011;2040;50.924;11.604;2022-12-05T17:24:13;18.97;;;9.30;;
4051;SDS011;2040;50.924;11.604;2022-12-05T17:26:41;42.53;;;18.23;;
4051;SDS011;2040;50.924;11.604;2022-12-05T17:29:07;27.10;;;14.70;;
4051;SDS011;2040;50.924;11.604;2022-12-05T17:31:32;24.30;;;14.17;;
4051;SDS011;2040;50.924;11.604;2022-12-05T17:33:58;24.60;;;12.63;;
4051;SDS011;2040;50.924;11.604;2022-12-05T17:36:24;25.20;;;13.40;;
4051;SDS011;2040;50.924;11.604;2022-12-05T17:38:49;20.23;;;10.80;;
4051;SDS011;2040;50.924;11.604;2022-12-05T17:41:15;49.97;;;15.07;;
4051;SDS011;2040;50.924;11.604;2022-12-05T17:43:43;45.97;;;14.27;;
4051;SDS011;2040;50.924;11.604;2022-12-05T17:46:10;38.40;;;13.03;;